< < Back
Terminal Aerodrome Forecast


Current Version              Previous Versions:   1  2  3  4  5  6  7  8  9  

Terminal Aerodrome Forecast

316
FTUS42 KTAE 241120
TAFDHN
TAF
KDHN 241120Z 2412/2512 VRB03KT P6SM FEW250
     FM241800 04006KT P6SM SCT050=

Latest METAR

192
SAUS70 KWBC 250200 RRK
MTRDHN
METAR KDHN 250153Z 34003KT 10SM CLR 28/21 A3005 RMK AO2 SLP167
T02780211


USA.gov is the U.S. government's official web portal to all federal, state and local government web resources and services.